createdAt,value
2019-05-23T00:01:01.940Z,9.53
2019-05-23T00:06:12.725Z,10.50
2019-05-23T00:11:30.727Z,11.60
2019-05-23T00:16:40.528Z,10.10
2019-05-23T00:21:55.221Z,11.27
2019-05-23T00:27:02.924Z,9.83
2019-05-23T00:32:26.346Z,13.67
2019-05-23T00:37:31.964Z,9.60
2019-05-23T00:42:40.499Z,13.77
2019-05-23T00:48:00.203Z,12.17
2019-05-23T00:53:05.200Z,9.40
2019-05-23T00:58:09.855Z,9.07
2019-05-23T01:03:33.528Z,8.77
2019-05-23T01:08:48.786Z,9.90
2019-05-23T01:14:04.968Z,9.83
2019-05-23T01:19:20.620Z,10.13
2019-05-23T01:24:53.647Z,16.07
2019-05-23T01:29:59.511Z,16.17
2019-05-23T01:35:20.949Z,14.37
2019-05-23T01:40:16.543Z,13.33
2019-05-23T01:45:22.560Z,14.43
2019-05-23T01:50:41.934Z,13.63
2019-05-23T01:55:49.704Z,15.03
2019-05-23T02:00:54.572Z,8.97
2019-05-23T02:05:59.408Z,12.23
2019-05-23T02:11:11.607Z,14.47
2019-05-23T02:16:12.047Z,14.50
2019-05-23T02:21:30.282Z,10.97
2019-05-23T02:26:35.860Z,13.03
2019-05-23T02:31:40.239Z,11.50
2019-05-23T02:36:44.542Z,12.07
2019-05-23T02:42:02.004Z,12.80
2019-05-23T02:47:36.784Z,13.53
2019-05-23T02:52:46.572Z,12.73
2019-05-23T02:57:57.923Z,15.48
2019-05-23T03:03:09.169Z,13.30
2019-05-23T03:08:17.997Z,15.87
2019-05-23T03:13:26.637Z,19.30
2019-05-23T03:18:37.743Z,13.73
2019-05-23T03:23:43.594Z,13.23
2019-05-23T03:28:48.502Z,12.37
2019-05-23T03:34:12.557Z,12.53
2019-05-23T03:39:17.088Z,16.63
2019-05-23T03:44:21.982Z,11.07
2019-05-23T03:49:28.121Z,33.40
2019-05-23T03:54:39.980Z,24.50
2019-05-23T03:59:52.759Z,44.07
2019-05-23T04:05:00.465Z,63.03
2019-05-23T04:10:02.047Z,16.83
2019-05-23T04:15:15.111Z,6.13
2019-05-23T04:20:32.520Z,9.80
2019-05-23T04:25:32.416Z,5.70
2019-05-23T04:30:39.921Z,6.73
2019-05-23T04:35:51.300Z,7.10
2019-05-23T04:40:56.217Z,8.30
2019-05-23T04:46:01.092Z,12.53
2019-05-23T04:51:11.819Z,13.27
2019-05-23T04:56:23.369Z,13.93
2019-05-23T05:01:26.300Z,11.00
2019-05-23T05:06:40.214Z,10.13
2019-05-23T05:12:00.114Z,16.07
2019-05-23T05:17:23.858Z,13.57
2019-05-23T05:22:34.171Z,10.80
2019-05-23T05:27:42.804Z,10.07
2019-05-23T05:32:49.650Z,10.90
2019-05-23T05:38:03.358Z,10.80
2019-05-23T05:43:08.954Z,8.27
2019-05-23T05:49:33.625Z,6.13
2019-05-23T05:54:40.065Z,5.77
2019-05-23T06:00:02.963Z,5.18
2019-05-23T06:06:31.092Z,5.20
2019-05-23T06:11:58.854Z,5.50
2019-05-23T06:17:16.674Z,4.50
2019-05-23T06:22:28.572Z,7.35
2019-05-23T06:27:46.619Z,5.87
2019-05-23T06:33:44.780Z,8.10
2019-05-23T06:39:00.754Z,7.12
2019-05-23T06:44:27.325Z,6.90
2019-05-23T06:50:10.378Z,8.75
2019-05-23T06:55:22.442Z,6.22
2019-05-23T07:00:28.385Z,13.53
2019-05-23T07:05:35.749Z,15.35
2019-05-23T07:10:42.616Z,7.85
2019-05-23T07:15:47.503Z,6.75
2019-05-23T07:20:52.003Z,6.87
2019-05-23T07:25:56.833Z,7.30
2019-05-23T07:31:01.562Z,9.20
2019-05-23T07:36:06.283Z,7.85
2019-05-23T07:41:10.750Z,14.33
2019-05-23T07:46:16.207Z,12.68
2019-05-23T07:51:21.490Z,12.33
2019-05-23T07:56:28.621Z,11.80
2019-05-23T08:01:35.057Z,12.05
2019-05-23T08:06:39.913Z,11.85
2019-05-23T08:11:45.179Z,14.75
2019-05-23T08:16:50.012Z,12.75
2019-05-23T08:21:54.686Z,12.33
2019-05-23T08:26:59.241Z,11.15
2019-05-23T08:32:03.936Z,13.88
2019-05-23T08:37:09.000Z,11.93
2019-05-23T08:42:14.146Z,19.05
2019-05-23T08:47:19.197Z,9.30
2019-05-23T08:52:24.211Z,13.90
2019-05-23T08:57:29.587Z,9.95
2019-05-23T09:02:35.897Z,10.57
2019-05-23T09:07:41.624Z,9.65
2019-05-23T09:12:47.027Z,10.72
2019-05-23T09:17:53.898Z,10.00
2019-05-23T09:22:58.733Z,8.18
2019-05-23T09:28:04.458Z,10.68
2019-05-23T09:33:10.013Z,9.43
2019-05-23T09:38:15.139Z,11.10
2019-05-23T09:43:20.312Z,9.68
2019-05-23T09:48:25.173Z,10.65
2019-05-23T09:53:30.444Z,9.15
2019-05-23T09:58:35.386Z,10.70
2019-05-23T10:03:41.716Z,10.78
2019-05-23T10:08:46.511Z,10.48
2019-05-23T10:13:51.620Z,13.98
2019-05-23T10:18:56.400Z,17.52
2019-05-23T10:24:04.022Z,9.43
2019-05-23T10:29:08.888Z,9.75
2019-05-23T10:34:13.724Z,8.83
2019-05-23T10:39:21.108Z,11.22
2019-05-23T10:44:25.929Z,8.75
2019-05-23T10:49:30.767Z,13.05
2019-05-23T10:54:35.654Z,13.00
2019-05-23T10:59:40.491Z,11.08
2019-05-23T11:04:45.227Z,12.28
2019-05-23T11:09:49.883Z,12.80
2019-05-23T11:14:54.905Z,8.23
2019-05-23T11:19:59.851Z,10.43
2019-05-23T11:25:05.625Z,14.90
2019-05-23T11:30:13.389Z,10.82
2019-05-23T11:35:18.562Z,9.53
2019-05-23T11:40:23.161Z,14.60
2019-05-23T11:45:31.372Z,15.40
2019-05-23T11:50:36.305Z,9.05
2019-05-23T11:55:41.037Z,8.38
2019-05-23T12:01:20.199Z,10.55
2019-05-23T12:06:18.992Z,8.78
2019-05-23T12:11:24.061Z,11.65
2019-05-23T12:16:28.690Z,7.55
2019-05-23T12:21:33.149Z,10.00
2019-05-23T12:26:37.961Z,11.30
2019-05-23T12:31:42.614Z,7.45
2019-05-23T12:36:47.793Z,11.68
2019-05-23T12:41:52.371Z,7.50
2019-05-23T12:46:57.154Z,8.73
2019-05-23T12:52:03.117Z,7.72
2019-05-23T12:57:08.216Z,8.40
2019-05-23T13:02:17.269Z,6.12
2019-05-23T13:07:35.725Z,5.72
2019-05-23T13:12:29.665Z,4.80
2019-05-23T13:17:34.345Z,5.33
2019-05-23T13:22:39.217Z,5.62
2019-05-23T13:27:43.912Z,8.67
2019-05-23T13:32:48.610Z,5.67
2019-05-23T13:37:54.499Z,8.38
2019-05-23T13:42:59.381Z,7.15
2019-05-23T13:48:04.171Z,5.92
2019-05-23T13:53:09.951Z,6.55
2019-05-23T13:58:16.900Z,6.75
2019-05-23T14:03:21.883Z,6.78
2019-05-23T14:08:26.541Z,5.97
2019-05-23T14:13:33.911Z,4.75
2019-05-23T14:18:39.011Z,5.05
2019-05-23T14:23:43.690Z,4.70
2019-05-23T14:28:49.390Z,4.55
2019-05-23T14:34:18.689Z,5.60
2019-05-23T14:39:39.351Z,3.90
2019-05-23T14:44:44.289Z,7.28
2019-05-23T14:49:57.993Z,6.35
2019-05-23T14:55:10.256Z,5.65
2019-05-23T15:00:16.455Z,5.85
2019-05-23T15:05:21.623Z,5.40
2019-05-23T15:10:26.681Z,2.83
2019-05-23T15:15:31.825Z,4.23
2019-05-23T15:20:36.583Z,3.12
2019-05-23T15:25:41.298Z,12.55
2019-05-23T15:30:45.849Z,4.37
2019-05-23T15:35:50.435Z,5.87
2019-05-23T15:40:55.406Z,6.15
2019-05-23T15:46:00.915Z,3.00
2019-05-23T15:51:07.511Z,6.20
2019-05-23T15:56:28.244Z,4.08
2019-05-23T16:01:52.848Z,5.25
2019-05-23T16:06:58.210Z,7.00
2019-05-23T16:12:03.347Z,4.45
2019-05-23T16:17:09.713Z,5.15
2019-05-23T16:22:14.999Z,7.40
2019-05-23T16:27:21.560Z,7.47
2019-05-23T16:32:28.154Z,5.40
2019-05-23T16:37:32.988Z,5.08
2019-05-23T16:42:37.708Z,5.10
2019-05-23T16:47:43.102Z,4.97
2019-05-23T16:52:50.751Z,2.75
2019-05-23T16:58:00.740Z,3.67
2019-05-23T17:03:30.958Z,4.30
2019-05-23T17:09:00.864Z,5.75
2019-05-23T17:14:27.946Z,6.03
2019-05-23T17:19:41.875Z,3.65
2019-05-23T17:25:02.905Z,3.72
2019-05-23T17:30:27.978Z,3.75
2019-05-23T17:35:33.878Z,5.85
2019-05-23T17:40:39.225Z,4.15
2019-05-23T17:45:44.566Z,5.75
2019-05-23T17:50:50.127Z,7.05
2019-05-23T17:55:56.840Z,5.45
2019-05-23T18:01:02.585Z,3.90
2019-05-23T18:06:07.707Z,4.05
2019-05-23T18:11:13.125Z,4.95
2019-05-23T18:16:17.739Z,7.65
2019-05-23T18:21:22.800Z,3.00
2019-05-23T18:26:28.108Z,3.87
2019-05-23T18:31:34.707Z,2.55
2019-05-23T18:36:39.997Z,2.10
2019-05-23T18:41:44.834Z,2.75
2019-05-23T18:46:52.740Z,4.67
2019-05-23T18:51:58.253Z,2.67
2019-05-23T18:57:03.644Z,3.70
2019-05-23T19:02:08.549Z,2.85
2019-05-23T19:07:13.763Z,3.35
2019-05-23T19:12:18.647Z,6.05
2019-05-23T19:17:25.476Z,2.47
2019-05-23T19:22:30.939Z,2.90
2019-05-23T19:27:36.099Z,4.63
2019-05-23T19:32:41.311Z,3.90
2019-05-23T19:37:48.730Z,3.58
2019-05-23T19:42:53.882Z,4.67
2019-05-23T19:47:58.738Z,6.17
2019-05-23T19:53:03.524Z,3.37
2019-05-23T19:58:08.086Z,3.90
2019-05-23T20:03:13.531Z,3.13
2019-05-23T20:08:20.219Z,3.43
2019-05-23T20:13:24.814Z,2.57
2019-05-23T20:18:29.942Z,6.73
2019-05-23T20:23:34.498Z,5.05
2019-05-23T20:28:40.360Z,4.83
2019-05-23T20:33:45.165Z,5.70
2019-05-23T20:38:49.871Z,2.63
2019-05-23T20:43:54.933Z,4.37
2019-05-23T20:48:59.961Z,5.13
2019-05-23T20:54:04.825Z,2.63
2019-05-23T20:59:10.118Z,3.87
2019-05-23T21:04:15.213Z,3.30
2019-05-23T21:09:21.238Z,3.90
2019-05-23T21:14:26.179Z,4.73
2019-05-23T21:19:31.832Z,3.57
2019-05-23T21:24:37.192Z,5.53
2019-05-23T21:29:42.031Z,4.50
2019-05-23T21:34:46.810Z,4.50
2019-05-23T21:39:51.544Z,5.80
2019-05-23T21:44:56.440Z,4.77
2019-05-23T21:50:01.201Z,4.10
2019-05-23T21:55:07.597Z,5.00
2019-05-23T22:00:14.889Z,7.25
2019-05-23T22:05:19.953Z,4.30
2019-05-23T22:10:25.017Z,6.03
2019-05-23T22:15:38.493Z,4.50
2019-05-23T22:20:43.695Z,5.73
2019-05-23T22:25:48.529Z,5.10
2019-05-23T22:30:53.106Z,6.53
2019-05-23T22:36:00.359Z,4.53
2019-05-23T22:41:05.595Z,4.53
2019-05-23T22:46:10.532Z,6.37
2019-05-23T22:51:15.586Z,4.70
2019-05-23T22:56:21.511Z,4.70
2019-05-23T23:01:29.298Z,4.85
2019-05-23T23:06:37.673Z,5.93
2019-05-23T23:11:42.927Z,6.23
2019-05-23T23:16:47.615Z,8.37
2019-05-23T23:21:52.313Z,7.03
2019-05-23T23:26:57.207Z,5.00
2019-05-23T23:32:03.893Z,5.07
2019-05-23T23:37:08.432Z,6.67
2019-05-23T23:42:12.947Z,7.30
2019-05-23T23:47:35.202Z,6.20
2019-05-23T23:52:57.118Z,9.30
2019-05-23T23:58:01.229Z,5.77
